Time;durP1;ratioP1;P1;durP2;ratioP2;P2;SDS_P1;SDS_P2;PMS_P1;PMS_P2;Temp;Humidity;BMP_temperature;BMP_pressure;BME280_temperature;BME280_humidity;BME280_pressure;Samples;Min_cycle;Max_cycle;Signal;HPM_P1;HPM_P2
2021/03/14 00:00:49;;;;;;;1.20;0.60;;;;;;;;;;5000730;28;20050;-70
2021/03/14 00:03:17;;;;;;;1.33;0.60;;;;;;;;;;5013786;28;20467;-69
2021/03/14 00:05:45;;;;;;;2.90;0.68;;;;;;;;;;5013440;28;20505;-68
2021/03/14 00:08:12;;;;;;;1.05;0.40;;;;;;;;;;5013455;28;20054;-70
2021/03/14 00:10:41;;;;;;;0.55;0.43;;;;;;;;;;5013913;28;20051;-69
2021/03/14 00:13:15;;;;;;;0.75;0.40;;;;;;;;;;4995136;28;20046;-69
2021/03/14 00:15:42;;;;;;;0.60;0.50;;;;;;;;;;4993358;28;20054;-69
2021/03/14 00:18:08;;;;;;;0.65;0.50;;;;;;;;;;4977675;28;20530;-70
2021/03/14 00:20:35;;;;;;;1.58;0.68;;;;;;;;;;5013327;28;20050;-69
2021/03/14 00:23:02;;;;;;;2.38;0.60;;;;;;;;;;5014194;28;20064;-69
2021/03/14 00:25:28;;;;;;;1.45;0.47;;;;;;;;;;5014019;28;20069;-70
2021/03/14 00:27:54;;;;;;;1.38;0.47;;;;;;;;;;5014348;28;20500;-70
2021/03/14 00:30:21;;;;;;;1.63;0.95;;;;;;;;;;5014582;28;20054;-69
2021/03/14 00:32:47;;;;;;;0.82;0.40;;;;;;;;;;5029591;28;20116;-70
2021/03/14 00:35:15;;;;;;;2.25;0.40;;;;;;;;;;5012216;28;20127;-69
2021/03/14 00:37:41;;;;;;;2.38;1.00;;;;;;;;;;5012970;28;20100;-69
2021/03/14 00:40:18;;;;;;;2.22;0.93;;;;;;;;;;5005997;28;20054;-69
2021/03/14 00:42:44;;;;;;;0.88;0.75;;;;;;;;;;4994728;28;20062;-69
2021/03/14 00:45:26;;;;;;;2.28;0.70;;;;;;;;;;4993069;28;20061;-69
2021/03/14 00:47:52;;;;;;;2.00;0.75;;;;;;;;;;4992418;28;20054;-70
2021/03/14 00:50:18;;;;;;;1.77;0.75;;;;;;;;;;5014209;28;20050;-69
2021/03/14 00:52:44;;;;;;;1.58;1.13;;;;;;;;;;5001997;28;20477;-69
2021/03/14 00:55:10;;;;;;;2.33;1.13;;;;;;;;;;4992540;28;20108;-68
2021/03/14 00:57:37;;;;;;;2.03;1.00;;;;;;;;;;4997211;28;20050;-70
2021/03/14 01:00:05;;;;;;;1.35;0.98;;;;;;;;;;4997456;28;20092;-69
2021/03/14 01:02:31;;;;;;;0.73;0.63;;;;;;;;;;5012944;28;20523;-69
2021/03/14 01:04:57;;;;;;;2.65;0.47;;;;;;;;;;5013911;28;20050;-69
2021/03/14 01:07:23;;;;;;;0.43;0.35;;;;;;;;;;5000087;28;20105;-70
2021/03/14 01:09:49;;;;;;;0.20;0.20;;;;;;;;;;4994169;28;20097;-69
2021/03/14 01:12:15;;;;;;;1.27;0.43;;;;;;;;;;5005785;28;20112;-69
2021/03/14 01:14:41;;;;;;;0.57;0.38;;;;;;;;;;5026647;28;20089;-69
2021/03/14 01:17:08;;;;;;;0.65;0.20;;;;;;;;;;5018168;28;20061;-70
2021/03/14 01:19:34;;;;;;;0.85;0.40;;;;;;;;;;5018710;28;20057;-69
2021/03/14 01:22:00;;;;;;;0.85;0.40;;;;;;;;;;5017227;28;20100;-68
2021/03/14 01:24:26;;;;;;;1.60;0.57;;;;;;;;;;4999864;28;20081;-69
2021/03/14 01:26:52;;;;;;;0.70;0.32;;;;;;;;;;4983483;28;20113;-68
2021/03/14 01:29:19;;;;;;;0.40;0.38;;;;;;;;;;5000409;28;20053;-68
2021/03/14 01:31:45;;;;;;;0.20;0.20;;;;;;;;;;4984228;28;20046;-70
2021/03/14 01:34:11;;;;;;;0.20;0.20;;;;;;;;;;4996568;28;20057;-69
2021/03/14 01:36:37;;;;;;;0.35;0.30;;;;;;;;;;5001652;28;20051;-69
2021/03/14 01:39:03;;;;;;;0.65;0.15;;;;;;;;;;5000835;28;20058;-69
2021/03/14 01:41:29;;;;;;;1.05;0.30;;;;;;;;;;5001245;28;20061;-69
2021/03/14 01:43:56;;;;;;;0.70;0.38;;;;;;;;;;5018056;28;20492;-70
2021/03/14 01:46:22;;;;;;;1.30;0.20;;;;;;;;;;5002814;28;20054;-70
2021/03/14 01:48:54;;;;;;;0.60;0.40;;;;;;;;;;4987133;28;20106;-70
2021/03/14 01:51:20;;;;;;;1.33;0.40;;;;;;;;;;5002798;28;20085;-69
2021/03/14 01:53:47;;;;;;;0.20;0.20;;;;;;;;;;5002802;28;20104;-69
2021/03/14 01:56:13;;;;;;;0.55;0.30;;;;;;;;;;4985841;28;20493;-69
2021/03/14 01:58:41;;;;;;;1.35;0.40;;;;;;;;;;4985465;28;20077;-69
2021/03/14 02:01:07;;;;;;;0.55;0.35;;;;;;;;;;4987726;28;20107;-70
2021/03/14 02:03:33;;;;;;;1.17;0.65;;;;;;;;;;5021219;28;20042;-69
2021/03/14 02:05:59;;;;;;;1.33;0.30;;;;;;;;;;5016441;28;20551;-69
2021/03/14 02:08:25;;;;;;;1.48;0.82;;;;;;;;;;4997672;28;20464;-69
2021/03/14 02:10:52;;;;;;;0.30;0.20;;;;;;;;;;5009630;28;20046;-69
2021/03/14 02:13:25;;;;;;;0.40;0.22;;;;;;;;;;5015160;28;20045;-69
2021/03/14 02:16:12;;;;;;;0.10;0.10;;;;;;;;;;5016507;28;20046;-70
2021/03/14 02:18:40;;;;;;;0.08;0.08;;;;;;;;;;5037205;28;20054;-69
2021/03/14 02:21:07;;;;;;;0.40;0.30;;;;;;;;;;5036577;28;20049;-70
2021/03/14 02:23:52;;;;;;;1.05;0.30;;;;;;;;;;5021200;28;20046;-69
2021/03/14 02:26:24;;;;;;;0.43;0.32;;;;;;;;;;5019817;28;20072;-70
2021/03/14 02:28:52;;;;;;;0.90;0.43;;;;;;;;;;5015157;28;20073;-69
2021/03/14 02:31:19;;;;;;;0.85;0.85;;;;;;;;;;5012320;28;20589;-70
2021/03/14 02:33:47;;;;;;;1.58;0.60;;;;;;;;;;5011184;28;20046;-70
2021/03/14 02:36:13;;;;;;;0.75;0.60;;;;;;;;;;4991180;28;20464;-70
2021/03/14 02:38:41;;;;;;;0.65;0.60;;;;;;;;;;4992951;28;20045;-69
2021/03/14 02:41:09;;;;;;;2.85;0.68;;;;;;;;;;4994049;28;20453;-69
2021/03/14 02:43:35;;;;;;;1.38;0.82;;;;;;;;;;5001805;28;20050;-70
2021/03/14 02:46:02;;;;;;;1.33;0.75;;;;;;;;;;5008595;28;20050;-70
2021/03/14 02:48:28;;;;;;;2.47;1.13;;;;;;;;;;5021158;28;20054;-70
2021/03/14 02:50:56;;;;;;;4.40;1.23;;;;;;;;;;4983437;28;20069;-70
2021/03/14 02:53:22;;;;;;;1.08;0.85;;;;;;;;;;5027465;28;20057;-70
2021/03/14 02:55:48;;;;;;;1.35;0.90;;;;;;;;;;5010484;28;20111;-69
2021/03/14 02:58:15;;;;;;;1.90;0.95;;;;;;;;;;5011761;28;20054;-69
2021/03/14 03:00:43;;;;;;;2.20;1.30;;;;;;;;;;5010868;28;20104;-70
2021/03/14 03:03:10;;;;;;;6.30;1.70;;;;;;;;;;5011707;28;20058;-69
2021/03/14 03:05:36;;;;;;;2.90;1.60;;;;;;;;;;4994184;28;20133;-69
2021/03/14 03:08:03;;;;;;;2.05;1.55;;;;;;;;;;4991523;28;20568;-69
2021/03/14 03:10:40;;;;;;;5.72;1.67;;;;;;;;;;4991140;28;20058;-70
2021/03/14 03:13:06;;;;;;;1.77;1.50;;;;;;;;;;4998709;28;20045;-70
2021/03/14 03:15:32;;;;;;;3.95;1.40;;;;;;;;;;5006827;28;20387;-70
2021/03/14 03:17:59;;;;;;;3.50;1.58;;;;;;;;;;4990973;28;20046;-70
2021/03/14 03:20:26;;;;;;;5.78;1.60;;;;;;;;;;4975018;28;20394;-70
2021/03/14 03:22:52;;;;;;;3.05;1.60;;;;;;;;;;5042193;23;20045;-70
2021/03/14 03:25:19;;;;;;;4.15;1.85;;;;;;;;;;5041821;28;20040;-70
2021/03/14 03:27:45;;;;;;;5.25;2.03;;;;;;;;;;5053346;28;20052;-71
2021/03/14 03:30:13;;;;;;;4.75;2.22;;;;;;;;;;5052068;28;20500;-69
2021/03/14 03:32:43;;;;;;;3.20;1.50;;;;;;;;;;5042385;28;20052;-70
2021/03/14 03:35:12;;;;;;;2.95;1.42;;;;;;;;;;5034206;28;20045;-70
2021/03/14 03:37:38;;;;;;;2.40;1.38;;;;;;;;;;5031303;28;20053;-70
2021/03/14 03:40:06;;;;;;;1.58;1.27;;;;;;;;;;5028138;28;20522;-71
2021/03/14 03:42:34;;;;;;;2.05;1.27;;;;;;;;;;5031230;28;20463;-70
2021/03/14 03:45:01;;;;;;;3.50;1.35;;;;;;;;;;5015581;28;20045;-70
2021/03/14 03:47:27;;;;;;;4.85;1.33;;;;;;;;;;5000692;28;20103;-71
2021/03/14 03:49:53;;;;;;;1.55;1.30;;;;;;;;;;5023637;28;20057;-71
2021/03/14 03:52:20;;;;;;;3.10;1.10;;;;;;;;;;5029105;28;20500;-70
2021/03/14 03:54:47;;;;;;;2.22;2.03;;;;;;;;;;5032198;28;20075;-70
2021/03/14 03:57:13;;;;;;;1.58;1.48;;;;;;;;;;5048223;28;20085;-70
2021/03/14 03:59:40;;;;;;;1.25;1.13;;;;;;;;;;5049119;28;20045;-71
2021/03/14 04:02:06;;;;;;;4.72;1.30;;;;;;;;;;5031808;28;20057;-69
2021/03/14 04:04:33;;;;;;;3.10;1.80;;;;;;;;;;5032890;28;20129;-71
2021/03/14 04:07:00;;;;;;;3.78;1.30;;;;;;;;;;5026867;28;20049;-71
2021/03/14 04:09:26;;;;;;;1.52;1.20;;;;;;;;;;5038428;28;20050;-70
2021/03/14 04:11:52;;;;;;;2.47;1.10;;;;;;;;;;5041153;28;20276;-70
2021/03/14 04:14:18;;;;;;;1.50;0.88;;;;;;;;;;5032433;28;20042;-70
2021/03/14 04:16:44;;;;;;;2.03;1.15;;;;;;;;;;5027093;28;20467;-69
2021/03/14 04:19:16;;;;;;;4.43;1.20;;;;;;;;;;5052283;28;20064;-71
2021/03/14 04:21:42;;;;;;;1.10;1.00;;;;;;;;;;5051336;28;20085;-70
2021/03/14 04:24:10;;;;;;;2.90;1.10;;;;;;;;;;5034235;28;20580;-70
2021/03/14 04:26:44;;;;;;;3.03;0.85;;;;;;;;;;5034262;28;20053;-70
2021/03/14 04:29:10;;;;;;;1.92;1.00;;;;;;;;;;5034655;28;20053;-71
2021/03/14 04:31:39;;;;;;;2.42;1.00;;;;;;;;;;5050309;28;20046;-68
2021/03/14 04:34:05;;;;;;;3.25;1.00;;;;;;;;;;5034113;28;20631;-70
2021/03/14 04:36:31;;;;;;;0.80;0.80;;;;;;;;;;5032858;28;20103;-70
2021/03/14 04:38:57;;;;;;;1.48;0.70;;;;;;;;;;4998042;28;20050;-71
2021/03/14 04:41:23;;;;;;;1.35;0.77;;;;;;;;;;5022237;28;20107;-71
2021/03/14 04:43:49;;;;;;;1.95;0.95;;;;;;;;;;5022351;28;20046;-70
2021/03/14 04:46:16;;;;;;;5.55;1.15;;;;;;;;;;4997187;28;20053;-70
2021/03/14 04:48:43;;;;;;;3.47;0.80;;;;;;;;;;5018978;28;20077;-70
2021/03/14 04:51:30;;;;;;;4.10;1.00;;;;;;;;;;5019012;28;20054;-70
2021/03/14 04:53:57;;;;;;;1.45;0.70;;;;;;;;;;5011195;28;20045;-70
2021/03/14 04:56:25;;;;;;;1.92;0.73;;;;;;;;;;5035482;28;20045;-71
2021/03/14 04:58:51;;;;;;;1.83;0.65;;;;;;;;;;5050859;28;20373;-70
2021/03/14 05:01:20;;;;;;;2.55;0.80;;;;;;;;;;5036817;28;20045;-68
2021/03/14 05:03:50;;;;;;;1.52;1.13;;;;;;;;;;5036472;28;20127;-70
2021/03/14 05:06:17;;;;;;;2.70;0.90;;;;;;;;;;5034068;28;20045;-70
2021/03/14 05:08:44;;;;;;;2.63;0.90;;;;;;;;;;5034115;28;20466;-70
2021/03/14 05:11:10;;;;;;;0.65;0.65;;;;;;;;;;5050344;28;20176;-70
2021/03/14 05:13:37;;;;;;;2.42;0.80;;;;;;;;;;5050436;28;20049;-70
2021/03/14 05:16:03;;;;;;;1.77;0.82;;;;;;;;;;5030113;28;20046;-70
2021/03/14 05:18:29;;;;;;;2.28;0.82;;;;;;;;;;5020263;28;20500;-69
2021/03/14 05:20:55;;;;;;;2.92;1.15;;;;;;;;;;5048524;28;20055;-69
2021/03/14 05:23:21;;;;;;;5.40;1.02;;;;;;;;;;5012960;28;20084;-69
2021/03/14 05:25:47;;;;;;;0.75;0.70;;;;;;;;;;4997295;28;20045;-68
2021/03/14 05:28:14;;;;;;;1.73;0.85;;;;;;;;;;5014264;28;20116;-70
2021/03/14 05:30:40;;;;;;;1.92;0.88;;;;;;;;;;5013788;28;20061;-69
2021/03/14 05:33:09;;;;;;;1.48;1.08;;;;;;;;;;5015656;28;20046;-70
2021/03/14 05:35:36;;;;;;;4.40;1.23;;;;;;;;;;5013984;28;20079;-70
2021/03/14 05:38:02;;;;;;;3.95;1.00;;;;;;;;;;5028710;28;20088;-68
2021/03/14 05:40:28;;;;;;;5.50;1.10;;;;;;;;;;5034785;28;20057;-70
2021/03/14 05:42:56;;;;;;;1.65;0.80;;;;;;;;;;5034818;28;20096;-70
2021/03/14 05:45:23;;;;;;;1.65;0.80;;;;;;;;;;5033668;28;20111;-70
2021/03/14 05:47:49;;;;;;;0.82;0.75;;;;;;;;;;5034151;28;20073;-70
2021/03/14 05:50:18;;;;;;;1.30;0.90;;;;;;;;;;5032920;28;20052;-70
2021/03/14 05:52:44;;;;;;;2.20;1.02;;;;;;;;;;5033862;28;20053;-70
2021/03/14 05:55:25;;;;;;;2.17;1.02;;;;;;;;;;5032279;28;20045;-71
2021/03/14 05:57:53;;;;;;;1.70;1.02;;;;;;;;;;5034460;28;20049;-70
2021/03/14 06:00:39;;;;;;;6.10;1.10;;;;;;;;;;5034089;28;20056;-70
2021/03/14 06:03:06;;;;;;;3.65;0.88;;;;;;;;;;5033748;28;20470;-70
2021/03/14 06:05:32;;;;;;;3.53;0.90;;;;;;;;;;5016757;28;20081;-71
2021/03/14 06:07:59;;;;;;;3.33;0.98;;;;;;;;;;5033574;28;20496;-71
2021/03/14 06:10:25;;;;;;;4.35;1.20;;;;;;;;;;5033689;28;20053;-70
2021/03/14 06:12:51;;;;;;;2.10;0.82;;;;;;;;;;5049074;28;20436;-70
2021/03/14 06:15:18;;;;;;;3.20;0.80;;;;;;;;;;5033408;28;20507;-70
2021/03/14 06:17:44;;;;;;;2.45;1.25;;;;;;;;;;5033529;28;20076;-70
2021/03/14 06:20:33;;;;;;;2.50;0.80;;;;;;;;;;5033499;28;20132;-70
2021/03/14 06:23:13;;;;;;;4.10;1.02;;;;;;;;;;5033414;28;20049;-70
2021/03/14 06:25:41;;;;;;;2.28;0.90;;;;;;;;;;5032354;28;20053;-69
2021/03/14 06:28:07;;;;;;;2.10;0.98;;;;;;;;;;5032725;28;20077;-69
2021/03/14 06:30:34;;;;;;;5.47;2.10;;;;;;;;;;5048564;28;20097;-71
2021/03/14 06:33:16;;;;;;;1.30;1.00;;;;;;;;;;5033043;28;20108;-70
2021/03/14 06:35:54;;;;;;;2.90;1.17;;;;;;;;;;5032397;28;20049;-70
2021/03/14 06:38:27;;;;;;;2.60;1.00;;;;;;;;;;5033210;28;20064;-70
2021/03/14 06:41:09;;;;;;;;;;;;;;;;;;5033462;28;20103;-70
2021/03/14 06:43:46;;;;;;;1.98;1.20;;;;;;;;;;5032862;28;19990;-69
2021/03/14 06:46:18;;;;;;;;;;;;;;;;;;5024660;28;20057;-71
2021/03/14 06:48:45;;;;;;;2.13;1.00;;;;;;;;;;5032211;28;20295;-70
2021/03/14 06:51:11;;;;;;;2.33;1.08;;;;;;;;;;5031614;28;20050;-70
2021/03/14 06:53:37;;;;;;;5.68;1.33;;;;;;;;;;5034501;28;20108;-70
2021/03/14 06:56:05;;;;;;;2.95;1.63;;;;;;;;;;5024037;28;20077;-71
2021/03/14 06:58:31;;;;;;;7.32;1.50;;;;;;;;;;5032781;28;20475;-70
2021/03/14 07:01:17;;;;;;;4.78;0.80;;;;;;;;;;5032556;28;20103;-70
2021/03/14 07:03:51;;;;;;;4.00;1.10;;;;;;;;;;5032211;28;20496;-70
2021/03/14 07:06:21;;;;;;;;;;;;;;;;;;5047450;28;20520;-70
2021/03/14 07:08:57;;;;;;;3.75;1.17;;;;;;;;;;5032497;28;19921;-70
2021/03/14 07:11:44;;;;;;;3.70;1.23;;;;;;;;;;5032607;28;20053;-70
2021/03/14 07:14:16;;;;;;;3.05;1.30;;;;;;;;;;5032971;28;20508;-70
2021/03/14 07:16:43;;;;;;;3.53;1.13;;;;;;;;;;5031434;28;20054;-70
2021/03/14 07:19:19;;;;;;;4.10;1.20;;;;;;;;;;5032956;28;20136;-70
2021/03/14 07:21:45;;;;;;;3.60;1.10;;;;;;;;;;5033457;28;20096;-70
2021/03/14 07:24:13;;;;;;;3.50;1.02;;;;;;;;;;5033501;28;20049;-71
2021/03/14 07:26:40;;;;;;;5.13;1.00;;;;;;;;;;5016144;28;20049;-71
2021/03/14 07:29:07;;;;;;;2.50;1.30;;;;;;;;;;5011569;28;20058;-70
2021/03/14 07:31:34;;;;;;;4.40;1.20;;;;;;;;;;5013572;28;20050;-71
2021/03/14 07:34:02;;;;;;;6.65;2.00;;;;;;;;;;5015166;28;20050;-69
2021/03/14 07:36:28;;;;;;;4.25;2.03;;;;;;;;;;5032196;28;20496;-70
2021/03/14 07:38:57;;;;;;;3.53;1.60;;;;;;;;;;5023164;28;20081;-69
2021/03/14 07:41:24;;;;;;;4.43;1.85;;;;;;;;;;5027569;28;20046;-70
2021/03/14 07:43:51;;;;;;;4.93;1.00;;;;;;;;;;5021933;28;20049;-70
2021/03/14 07:46:18;;;;;;;1.63;0.75;;;;;;;;;;5014104;28;20058;-69
2021/03/14 07:48:44;;;;;;;2.03;0.70;;;;;;;;;;5035686;28;20518;-71
2021/03/14 07:51:11;;;;;;;3.50;0.98;;;;;;;;;;5016005;28;20710;-71
2021/03/14 07:53:46;;;;;;;5.65;2.08;;;;;;;;;;5029955;28;20045;-69
2021/03/14 07:56:12;;;;;;;13.73;1.77;;;;;;;;;;5027498;28;20080;-71
2021/03/14 07:58:38;;;;;;;4.32;1.15;;;;;;;;;;5018182;28;20096;-70
2021/03/14 08:01:41;;;;;;;4.28;1.08;;;;;;;;;;5029729;28;20112;-70
2021/03/14 08:04:30;;;;;;;4.27;1.53;;;;;;;;;;4952930;29;20074;-70
2021/03/14 08:06:56;;;;;;;10.02;1.48;;;;;;;;;;5010983;28;20492;-71
2021/03/14 08:09:48;;;;;;;3.42;1.52;;;;;;;;;;5014500;28;20513;-71
2021/03/14 08:12:22;;;;;;;5.68;1.00;;;;;;;;;;5015943;28;20050;-71
2021/03/14 08:14:55;;;;;;;3.88;1.10;;;;;;;;;;5013285;28;20104;-70
2021/03/14 08:17:24;;;;;;;3.95;1.05;;;;;;;;;;5013602;28;20064;-70
2021/03/14 08:19:52;;;;;;;3.63;1.08;;;;;;;;;;5014456;28;20053;-70
2021/03/14 08:22:36;;;;;;;3.17;0.80;;;;;;;;;;5016242;28;20452;-71
2021/03/14 08:25:26;;;;;;;3.90;1.13;;;;;;;;;;5035146;28;20072;-70
2021/03/14 08:28:00;;;;;;;2.45;1.15;;;;;;;;;;5033802;28;20057;-70
2021/03/14 08:30:29;;;;;;;5.35;1.10;;;;;;;;;;5034471;28;20053;-70
2021/03/14 08:33:18;;;;;;;2.03;1.00;;;;;;;;;;5027370;28;20693;-70
2021/03/14 08:35:45;;;;;;;5.15;1.27;;;;;;;;;;5022891;28;20045;-67
2021/03/14 08:38:39;;;;;;;4.60;1.05;;;;;;;;;;4990994;28;20118;-70
2021/03/14 08:41:39;;;;;;;4.05;1.38;;;;;;;;;;5030749;28;20073;-69
2021/03/14 08:44:06;;;;;;;6.50;1.95;;;;;;;;;;5017360;28;20078;-70
2021/03/14 08:46:50;;;;;;;3.80;1.38;;;;;;;;;;5011814;28;20058;-70
2021/03/14 08:49:18;;;;;;;5.43;1.60;;;;;;;;;;5014330;28;20053;-70
2021/03/14 08:51:44;;;;;;;4.70;1.55;;;;;;;;;;5007963;28;20069;-72
2021/03/14 08:54:31;;;;;;;5.72;0.73;;;;;;;;;;5023246;28;20128;-70
2021/03/14 08:56:59;;;;;;;5.50;1.08;;;;;;;;;;5017008;28;20512;-70
2021/03/14 08:59:26;;;;;;;9.60;2.25;;;;;;;;;;5023046;28;20091;-69
2021/03/14 09:01:54;;;;;;;2.78;1.75;;;;;;;;;;5019418;28;20053;-69
2021/03/14 09:04:31;;;;;;;3.67;1.10;;;;;;;;;;5017862;28;20100;-69
2021/03/14 09:07:03;;;;;;;6.22;1.17;;;;;;;;;;5020958;28;20050;-70
2021/03/14 09:09:30;;;;;;;1.97;0.80;;;;;;;;;;5018659;28;20053;-70
2021/03/14 09:11:58;;;;;;;2.90;1.17;;;;;;;;;;5037625;28;20829;-70
2021/03/14 09:14:33;;;;;;;1.30;0.70;;;;;;;;;;5018035;28;20146;-70
2021/03/14 09:17:07;;;;;;;1.88;0.77;;;;;;;;;;5016057;28;20583;-70
2021/03/14 09:19:35;;;;;;;1.00;0.63;;;;;;;;;;5021754;28;20382;-70
2021/03/14 09:22:07;;;;;;;0.70;0.60;;;;;;;;;;5016812;28;20057;-70
2021/03/14 09:24:57;;;;;;;3.70;0.90;;;;;;;;;;5019146;28;20115;-71
2021/03/14 09:27:25;;;;;;;1.90;0.70;;;;;;;;;;5042422;22;20080;-71
2021/03/14 09:29:55;;;;;;;4.68;0.60;;;;;;;;;;4975833;28;20508;-71
2021/03/14 09:32:23;;;;;;;1.20;0.80;;;;;;;;;;5016679;28;20111;-72
2021/03/14 09:34:51;;;;;;;1.60;1.13;;;;;;;;;;5022463;28;20103;-70
2021/03/14 09:37:28;;;;;;;1.73;0.73;;;;;;;;;;5017036;28;20045;-71
2021/03/14 09:40:16;;;;;;;3.78;0.80;;;;;;;;;;5017256;28;20045;-71
2021/03/14 09:42:43;;;;;;;1.52;0.90;;;;;;;;;;5021230;28;20053;-68
2021/03/14 09:45:14;;;;;;;3.55;0.80;;;;;;;;;;5015952;28;20088;-71
2021/03/14 09:48:09;;;;;;;2.10;0.70;;;;;;;;;;5021589;28;20138;-70
2021/03/14 09:50:42;;;;;;;1.25;0.65;;;;;;;;;;5019342;28;20057;-69
2021/03/14 09:53:16;;;;;;;3.70;0.80;;;;;;;;;;5017366;28;20085;-74
2021/03/14 09:55:48;;;;;;;2.50;0.55;;;;;;;;;;5009152;28;20485;-71
2021/03/14 09:58:24;;;;;;;1.67;1.00;;;;;;;;;;4988190;28;20103;-71
2021/03/14 10:00:51;;;;;;;2.45;0.63;;;;;;;;;;5017150;28;20049;-74
2021/03/14 10:03:23;;;;;;;3.40;0.82;;;;;;;;;;5016481;28;20054;-70
2021/03/14 10:05:51;;;;;;;3.65;0.77;;;;;;;;;;5017625;28;20046;-70
2021/03/14 10:08:22;;;;;;;4.13;1.02;;;;;;;;;;4996210;28;20045;-71
2021/03/14 10:10:49;;;;;;;1.50;0.80;;;;;;;;;;5010601;28;20062;-71
2021/03/14 10:13:20;;;;;;;2.58;1.50;;;;;;;;;;5009271;28;20080;-70
2021/03/14 10:15:50;;;;;;;3.03;1.77;;;;;;;;;;5002546;28;20122;-70
2021/03/14 10:18:19;;;;;;;4.38;1.58;;;;;;;;;;5019636;28;20057;-70
2021/03/14 10:20:46;;;;;;;4.55;1.95;;;;;;;;;;4994394;28;20054;-70
2021/03/14 10:23:12;;;;;;;3.97;1.55;;;;;;;;;;5006147;28;20128;-70
2021/03/14 10:25:39;;;;;;;5.55;1.30;;;;;;;;;;5020281;28;20082;-69
2021/03/14 10:28:13;;;;;;;5.18;1.98;;;;;;;;;;5018910;28;20057;-69
2021/03/14 10:30:42;;;;;;;4.10;1.10;;;;;;;;;;5017219;28;20104;-69
2021/03/14 10:33:13;;;;;;;3.67;1.38;;;;;;;;;;5003350;28;20551;-69
2021/03/14 10:35:41;;;;;;;2.70;1.35;;;;;;;;;;5020297;28;20050;-69
2021/03/14 10:38:22;;;;;;;5.97;1.73;;;;;;;;;;5017883;28;20132;-69
2021/03/14 10:40:49;;;;;;;2.13;0.90;;;;;;;;;;5016456;28;20053;-70
2021/03/14 10:43:25;;;;;;;2.13;0.90;;;;;;;;;;5011210;28;20072;-73
2021/03/14 10:45:53;;;;;;;2.58;0.70;;;;;;;;;;5003307;28;20046;-71
2021/03/14 10:48:30;;;;;;;3.08;0.90;;;;;;;;;;5016636;28;20081;-73
2021/03/14 10:51:01;;;;;;;5.35;0.82;;;;;;;;;;4987936;28;20104;-71
2021/03/14 10:53:27;;;;;;;5.25;0.80;;;;;;;;;;5021923;28;20195;-74
2021/03/14 10:56:07;;;;;;;3.35;0.77;;;;;;;;;;5000481;28;20402;-74
2021/03/14 10:58:41;;;;;;;5.35;0.93;;;;;;;;;;5002461;28;20061;-74
2021/03/14 11:01:15;;;;;;;2.53;0.68;;;;;;;;;;5011771;28;20049;-74
2021/03/14 11:03:42;;;;;;;4.88;1.20;;;;;;;;;;5001383;28;20092;-74
2021/03/14 11:06:16;;;;;;;2.45;0.90;;;;;;;;;;4999615;28;20052;-70
2021/03/14 11:08:49;;;;;;;2.90;1.20;;;;;;;;;;5017897;28;20045;-71
2021/03/14 11:11:19;;;;;;;2.10;1.58;;;;;;;;;;5015716;28;20483;-71
2021/03/14 11:13:47;;;;;;;1.45;0.80;;;;;;;;;;4985193;28;20104;-73
2021/03/14 11:16:13;;;;;;;2.05;0.68;;;;;;;;;;4993017;28;20456;-70
2021/03/14 11:18:40;;;;;;;5.15;0.70;;;;;;;;;;5019907;28;20232;-72
2021/03/14 11:21:08;;;;;;;2.45;1.00;;;;;;;;;;4986592;28;20140;-73
2021/03/14 11:23:34;;;;;;;3.22;0.90;;;;;;;;;;4965599;28;20080;-70
2021/03/14 11:26:03;;;;;;;3.08;1.40;;;;;;;;;;5018205;28;20419;-71
2021/03/14 11:28:29;;;;;;;1.48;0.90;;;;;;;;;;5008737;28;20053;-71
2021/03/14 11:30:56;;;;;;;4.35;1.25;;;;;;;;;;5013261;28;20088;-69
2021/03/14 11:33:23;;;;;;;4.88;1.17;;;;;;;;;;5020475;28;20046;-70
2021/03/14 11:35:49;;;;;;;5.38;0.80;;;;;;;;;;5005691;28;20171;-71
2021/03/14 11:38:15;;;;;;;4.80;0.82;;;;;;;;;;4989808;28;20049;-69
2021/03/14 11:40:41;;;;;;;3.05;0.65;;;;;;;;;;5021166;28;20042;-69
2021/03/14 11:43:09;;;;;;;3.55;1.05;;;;;;;;;;5018830;28;20045;-70
2021/03/14 11:45:35;;;;;;;1.73;0.95;;;;;;;;;;5018362;28;20163;-70
2021/03/14 11:48:01;;;;;;;2.63;1.02;;;;;;;;;;5017701;28;20053;-72
2021/03/14 11:50:27;;;;;;;1.67;0.70;;;;;;;;;;5023952;28;20055;-71
2021/03/14 11:52:53;;;;;;;4.05;0.93;;;;;;;;;;5023515;28;20050;-70
2021/03/14 11:55:19;;;;;;;4.55;1.17;;;;;;;;;;5019953;28;20045;-70
2021/03/14 11:57:45;;;;;;;4.68;1.20;;;;;;;;;;5020510;28;20480;-72
2021/03/14 12:00:14;;;;;;;1.38;0.57;;;;;;;;;;5017716;28;20512;-72
2021/03/14 12:02:41;;;;;;;5.00;0.98;;;;;;;;;;5019289;28;20459;-70
2021/03/14 12:05:07;;;;;;;6.65;1.10;;;;;;;;;;5018294;28;20042;-70
2021/03/14 12:07:33;;;;;;;2.15;1.05;;;;;;;;;;5002319;28;20062;-70
2021/03/14 12:10:00;;;;;;;2.97;0.70;;;;;;;;;;5018307;28;20049;-70
2021/03/14 12:12:26;;;;;;;2.63;1.05;;;;;;;;;;5018807;28;20491;-70
2021/03/14 12:14:52;;;;;;;2.60;1.00;;;;;;;;;;5019527;28;20046;-72
2021/03/14 12:17:19;;;;;;;3.53;1.35;;;;;;;;;;5017982;28;20053;-70
2021/03/14 12:19:45;;;;;;;5.10;0.90;;;;;;;;;;5018457;28;20143;-70
2021/03/14 12:22:11;;;;;;;3.00;1.13;;;;;;;;;;5018643;28;20140;-69
2021/03/14 12:24:37;;;;;;;1.30;0.85;;;;;;;;;;5018511;28;20574;-71
2021/03/14 12:27:08;;;;;;;4.15;0.85;;;;;;;;;;5003331;28;20452;-70
2021/03/14 12:29:34;;;;;;;3.30;1.02;;;;;;;;;;5021429;28;20103;-70
2021/03/14 12:32:01;;;;;;;3.80;0.73;;;;;;;;;;5019445;28;20065;-70
2021/03/14 12:34:30;;;;;;;2.58;1.15;;;;;;;;;;5030900;28;20045;-70
2021/03/14 12:36:56;;;;;;;3.75;1.30;;;;;;;;;;5010895;28;20080;-70
2021/03/14 12:39:22;;;;;;;3.35;1.25;;;;;;;;;;5014859;28;20053;-70
2021/03/14 12:41:48;;;;;;;4.15;1.30;;;;;;;;;;5017034;28;20160;-70
2021/03/14 12:44:15;;;;;;;4.20;1.00;;;;;;;;;;5011243;28;20065;-70
2021/03/14 12:46:41;;;;;;;4.18;1.35;;;;;;;;;;5010696;28;20116;-70
2021/03/14 12:49:07;;;;;;;2.97;1.08;;;;;;;;;;5010681;28;20132;-71
2021/03/14 12:51:33;;;;;;;3.28;0.80;;;;;;;;;;5020395;28;20137;-69
2021/03/14 12:53:59;;;;;;;3.05;1.15;;;;;;;;;;5008453;28;20060;-70
2021/03/14 12:56:26;;;;;;;2.80;0.95;;;;;;;;;;5006780;28;20119;-70
2021/03/14 12:58:52;;;;;;;2.97;0.90;;;;;;;;;;4998587;28;20105;-69
2021/03/14 13:01:19;;;;;;;1.38;0.60;;;;;;;;;;5016872;28;20049;-69
2021/03/14 13:03:45;;;;;;;1.45;0.80;;;;;;;;;;5016639;28;20056;-70
2021/03/14 13:06:11;;;;;;;2.35;1.02;;;;;;;;;;5016672;28;20041;-69
2021/03/14 13:08:37;;;;;;;5.43;1.20;;;;;;;;;;5018372;28;20100;-68
2021/03/14 13:11:03;;;;;;;1.98;0.82;;;;;;;;;;5017771;28;20573;-69
2021/03/14 13:13:29;;;;;;;3.33;1.10;;;;;;;;;;5018671;28;20057;-69
2021/03/14 13:15:56;;;;;;;4.05;0.98;;;;;;;;;;5016836;28;20049;-69
2021/03/14 13:18:22;;;;;;;7.47;1.20;;;;;;;;;;5018175;28;20046;-69
2021/03/14 13:20:50;;;;;;;4.97;0.90;;;;;;;;;;5015745;28;20193;-69
2021/03/14 13:23:18;;;;;;;5.72;1.20;;;;;;;;;;5000872;28;20137;-69
2021/03/14 13:25:45;;;;;;;3.67;1.30;;;;;;;;;;5014193;28;20042;-69
2021/03/14 13:28:11;;;;;;;2.85;1.33;;;;;;;;;;5013798;28;20042;-71
2021/03/14 13:30:38;;;;;;;3.30;0.93;;;;;;;;;;5016760;28;20057;-70
2021/03/14 13:33:04;;;;;;;4.18;1.08;;;;;;;;;;5016687;28;20115;-69
2021/03/14 13:35:30;;;;;;;3.22;1.00;;;;;;;;;;5015295;28;20138;-69
2021/03/14 13:37:57;;;;;;;5.13;0.82;;;;;;;;;;5017884;28;20053;-70
2021/03/14 13:40:24;;;;;;;2.03;0.55;;;;;;;;;;5017613;28;20484;-70
2021/03/14 13:42:51;;;;;;;2.78;0.60;;;;;;;;;;5016696;28;20049;-70
2021/03/14 13:45:17;;;;;;;2.55;0.70;;;;;;;;;;5015174;28;20041;-69
2021/03/14 13:47:44;;;;;;;2.33;0.88;;;;;;;;;;5017246;28;20057;-70
2021/03/14 13:50:11;;;;;;;1.92;1.05;;;;;;;;;;5014510;28;20065;-70
2021/03/14 13:52:37;;;;;;;7.55;1.80;;;;;;;;;;5017425;28;20537;-70
2021/03/14 13:55:03;;;;;;;4.28;1.90;;;;;;;;;;5015612;28;20045;-70
2021/03/14 13:57:29;;;;;;;3.88;0.88;;;;;;;;;;5013113;28;20099;-70
2021/03/14 13:59:55;;;;;;;2.92;0.90;;;;;;;;;;5017175;28;20092;-70
2021/03/14 14:02:23;;;;;;;1.52;1.02;;;;;;;;;;5015355;28;20535;-70
2021/03/14 14:04:49;;;;;;;5.03;1.25;;;;;;;;;;5014216;28;20505;-69
2021/03/14 14:07:15;;;;;;;6.38;1.75;;;;;;;;;;5014740;28;20413;-70
2021/03/14 14:09:42;;;;;;;2.53;0.90;;;;;;;;;;5016569;28;20548;-70
2021/03/14 14:12:08;;;;;;;3.10;0.90;;;;;;;;;;5013654;28;20056;-69
2021/03/14 14:14:34;;;;;;;1.02;0.80;;;;;;;;;;4998648;28;20447;-70
2021/03/14 14:17:00;;;;;;;2.33;1.08;;;;;;;;;;5015038;28;20049;-70
2021/03/14 14:19:26;;;;;;;7.75;1.30;;;;;;;;;;5015202;28;20063;-69
2021/03/14 14:21:53;;;;;;;4.82;1.02;;;;;;;;;;5014294;28;20049;-69
2021/03/14 14:24:19;;;;;;;4.05;1.17;;;;;;;;;;5014998;28;20099;-69
2021/03/14 14:26:45;;;;;;;2.88;1.02;;;;;;;;;;5014206;28;20053;-69
2021/03/14 14:29:12;;;;;;;2.30;1.40;;;;;;;;;;5015601;28;20501;-69
2021/03/14 14:31:39;;;;;;;5.55;1.70;;;;;;;;;;5014281;28;20080;-71
2021/03/14 14:34:05;;;;;;;3.38;1.40;;;;;;;;;;5016662;28;20052;-69
2021/03/14 14:36:31;;;;;;;6.40;2.05;;;;;;;;;;5016496;28;20089;-69
2021/03/14 14:38:59;;;;;;;5.90;2.65;;;;;;;;;;5015558;28;20075;-69
2021/03/14 14:41:25;;;;;;;5.25;2.30;;;;;;;;;;5015253;28;20050;-69
2021/03/14 14:43:52;;;;;;;6.55;2.10;;;;;;;;;;5016114;28;20100;-69
2021/03/14 14:46:18;;;;;;;4.93;1.88;;;;;;;;;;5015568;28;20054;-69
2021/03/14 14:48:44;;;;;;;4.88;2.60;;;;;;;;;;5015545;28;20060;-69
2021/03/14 14:51:10;;;;;;;7.07;3.25;;;;;;;;;;5015959;28;20393;-69
2021/03/14 14:53:36;;;;;;;4.55;1.80;;;;;;;;;;5015790;28;20471;-69